sensor_id;sensor_type;location;lat;lon;timestamp;temperature;humidity
5419;DHT22;2732;52.092;11.556;2022-12-29T00:03:16;7.20;99.90
5419;DHT22;2732;52.092;11.556;2022-12-29T00:08:16;7.20;99.90
5419;DHT22;2732;52.092;11.556;2022-12-29T00:13:17;7.20;99.90
5419;DHT22;2732;52.092;11.556;2022-12-29T00:18:36;7.20;99.90
5419;DHT22;2732;52.092;11.556;2022-12-29T00:23:36;7.20;99.90
5419;DHT22;2732;52.092;11.556;2022-12-29T00:28:55;7.20;99.90
5419;DHT22;2732;52.092;11.556;2022-12-29T00:34:14;7.20;99.90
5419;DHT22;2732;52.092;11.556;2022-12-29T00:39:34;7.20;99.90
5419;DHT22;2732;52.092;11.556;2022-12-29T00:44:53;7.30;99.90
5419;DHT22;2732;52.092;11.556;2022-12-29T00:49:53;7.30;99.90
5419;DHT22;2732;52.092;11.556;2022-12-29T00:54:54;7.30;99.90
5419;DHT22;2732;52.092;11.556;2022-12-29T00:59:54;7.30;99.90
5419;DHT22;2732;52.092;11.556;2022-12-29T01:04:55;7.30;99.90
5419;DHT22;2732;52.092;11.556;2022-12-29T01:09:56;7.30;99.90
5419;DHT22;2732;52.092;11.556;2022-12-29T01:15:14;7.40;99.90
5419;DHT22;2732;52.092;11.556;2022-12-29T01:20:15;7.40;99.90
5419;DHT22;2732;52.092;11.556;2022-12-29T01:25:15;7.40;99.90
5419;DHT22;2732;52.092;11.556;2022-12-29T01:30:16;7.40;99.90
5419;DHT22;2732;52.092;11.556;2022-12-29T01:35:17;7.50;99.90
5419;DHT22;2732;52.092;11.556;2022-12-29T01:40:17;7.50;99.90
5419;DHT22;2732;52.092;11.556;2022-12-29T01:45:18;7.50;99.90
5419;DHT22;2732;52.092;11.556;2022-12-29T01:50:50;7.60;99.90
5419;DHT22;2732;52.092;11.556;2022-12-29T01:55:54;7.60;99.90
5419;DHT22;2732;52.092;11.556;2022-12-29T02:00:58;7.60;99.90
5419;DHT22;2732;52.092;11.556;2022-12-29T02:06:07;7.60;99.90
5419;DHT22;2732;52.092;11.556;2022-12-29T02:11:30;7.60;99.90
5419;DHT22;2732;52.092;11.556;2022-12-29T02:33:42;7.70;99.90
5419;DHT22;2732;52.092;11.556;2022-12-29T02:44:30;7.80;99.90
5419;DHT22;2732;52.092;11.556;2022-12-29T02:49:42;7.80;99.90
5419;DHT22;2732;52.092;11.556;2022-12-29T02:54:49;7.80;99.90
5419;DHT22;2732;52.092;11.556;2022-12-29T02:59:53;7.80;99.90
5419;DHT22;2732;52.092;11.556;2022-12-29T03:05:08;7.80;99.90
5419;DHT22;2732;52.092;11.556;2022-12-29T03:10:19;7.90;99.90
5419;DHT22;2732;52.092;11.556;2022-12-29T03:16:06;7.90;99.90
5419;DHT22;2732;52.092;11.556;2022-12-29T03:21:30;7.90;99.90
5419;DHT22;2732;52.092;11.556;2022-12-29T03:26:57;8.00;99.90
5419;DHT22;2732;52.092;11.556;2022-12-29T03:31:59;7.90;99.90
5419;DHT22;2732;52.092;11.556;2022-12-29T03:37:06;8.00;99.90
5419;DHT22;2732;52.092;11.556;2022-12-29T03:42:14;8.00;99.90
5419;DHT22;2732;52.092;11.556;2022-12-29T03:47:16;8.00;99.90
5419;DHT22;2732;52.092;11.556;2022-12-29T03:52:17;8.10;99.90
5419;DHT22;2732;52.092;11.556;2022-12-29T03:57:18;8.10;99.90
5419;DHT22;2732;52.092;11.556;2022-12-29T04:02:19;8.10;99.90
5419;DHT22;2732;52.092;11.556;2022-12-29T04:07:19;8.20;99.90
5419;DHT22;2732;52.092;11.556;2022-12-29T04:12:20;8.20;99.90
5419;DHT22;2732;52.092;11.556;2022-12-29T04:17:21;8.30;99.90
5419;DHT22;2732;52.092;11.556;2022-12-29T04:22:21;8.30;99.90
5419;DHT22;2732;52.092;11.556;2022-12-29T04:27:22;8.40;99.90
5419;DHT22;2732;52.092;11.556;2022-12-29T04:32:22;8.40;99.90
5419;DHT22;2732;52.092;11.556;2022-12-29T04:37:23;8.40;99.90
5419;DHT22;2732;52.092;11.556;2022-12-29T04:42:23;8.40;99.90
5419;DHT22;2732;52.092;11.556;2022-12-29T04:47:24;8.50;99.90
5419;DHT22;2732;52.092;11.556;2022-12-29T04:52:25;8.50;99.90
5419;DHT22;2732;52.092;11.556;2022-12-29T04:57:26;8.50;99.90
5419;DHT22;2732;52.092;11.556;2022-12-29T05:02:27;8.40;99.90
5419;DHT22;2732;52.092;11.556;2022-12-29T05:07:27;8.50;99.90
5419;DHT22;2732;52.092;11.556;2022-12-29T05:12:34;8.50;99.90
5419;DHT22;2732;52.092;11.556;2022-12-29T05:17:36;8.50;99.90
5419;DHT22;2732;52.092;11.556;2022-12-29T05:22:37;8.40;99.90
5419;DHT22;2732;52.092;11.556;2022-12-29T05:27:38;8.40;99.90
5419;DHT22;2732;52.092;11.556;2022-12-29T05:32:39;8.40;99.90
5419;DHT22;2732;52.092;11.556;2022-12-29T05:37:39;8.40;99.90
5419;DHT22;2732;52.092;11.556;2022-12-29T05:42:40;8.40;99.90
5419;DHT22;2732;52.092;11.556;2022-12-29T05:47:40;8.40;99.90
5419;DHT22;2732;52.092;11.556;2022-12-29T05:52:41;8.30;99.90
5419;DHT22;2732;52.092;11.556;2022-12-29T05:57:41;8.40;99.90
5419;DHT22;2732;52.092;11.556;2022-12-29T06:02:42;8.30;99.90
5419;DHT22;2732;52.092;11.556;2022-12-29T06:07:42;8.30;99.90
5419;DHT22;2732;52.092;11.556;2022-12-29T06:12:44;8.40;99.90
5419;DHT22;2732;52.092;11.556;2022-12-29T06:17:45;8.40;99.90
5419;DHT22;2732;52.092;11.556;2022-12-29T06:22:46;8.40;99.90
5419;DHT22;2732;52.092;11.556;2022-12-29T06:27:47;8.40;99.90
5419;DHT22;2732;52.092;11.556;2022-12-29T06:32:48;8.30;99.90
5419;DHT22;2732;52.092;11.556;2022-12-29T06:37:49;8.40;99.90
5419;DHT22;2732;52.092;11.556;2022-12-29T06:42:49;8.40;99.90
5419;DHT22;2732;52.092;11.556;2022-12-29T06:47:50;8.40;99.90
5419;DHT22;2732;52.092;11.556;2022-12-29T06:52:50;8.40;99.90
5419;DHT22;2732;52.092;11.556;2022-12-29T06:57:57;8.40;99.90
5419;DHT22;2732;52.092;11.556;2022-12-29T07:02:58;8.40;99.90
5419;DHT22;2732;52.092;11.556;2022-12-29T07:08:17;8.40;99.90
5419;DHT22;2732;52.092;11.556;2022-12-29T07:13:18;8.50;99.90
5419;DHT22;2732;52.092;11.556;2022-12-29T07:18:19;8.50;99.90
5419;DHT22;2732;52.092;11.556;2022-12-29T07:23:19;8.50;99.90
5419;DHT22;2732;52.092;11.556;2022-12-29T07:28:20;8.50;99.90
5419;DHT22;2732;52.092;11.556;2022-12-29T07:33:21;8.50;99.90
5419;DHT22;2732;52.092;11.556;2022-12-29T07:38:21;8.50;99.90
5419;DHT22;2732;52.092;11.556;2022-12-29T07:43:22;8.50;99.90
5419;DHT22;2732;52.092;11.556;2022-12-29T07:48:23;8.50;99.90
5419;DHT22;2732;52.092;11.556;2022-12-29T07:53:23;8.60;99.90
5419;DHT22;2732;52.092;11.556;2022-12-29T07:58:25;8.60;99.90
5419;DHT22;2732;52.092;11.556;2022-12-29T08:03:26;8.70;99.90
5419;DHT22;2732;52.092;11.556;2022-12-29T08:08:27;8.80;99.90
5419;DHT22;2732;52.092;11.556;2022-12-29T08:13:27;8.90;99.90
5419;DHT22;2732;52.092;11.556;2022-12-29T08:18:28;9.00;99.90
5419;DHT22;2732;52.092;11.556;2022-12-29T08:23:28;9.10;99.90
5419;DHT22;2732;52.092;11.556;2022-12-29T08:28:30;9.20;99.90
5419;DHT22;2732;52.092;11.556;2022-12-29T08:33:31;9.30;99.90
5419;DHT22;2732;52.092;11.556;2022-12-29T08:38:32;9.40;99.90
5419;DHT22;2732;52.092;11.556;2022-12-29T08:43:33;9.50;99.90
5419;DHT22;2732;52.092;11.556;2022-12-29T08:48:33;9.70;99.90
5419;DHT22;2732;52.092;11.556;2022-12-29T08:53:34;9.80;99.90
5419;DHT22;2732;52.092;11.556;2022-12-29T08:58:35;10.00;99.90
5419;DHT22;2732;52.092;11.556;2022-12-29T09:03:36;10.20;99.90
5419;DHT22;2732;52.092;11.556;2022-12-29T09:08:37;10.30;99.90
5419;DHT22;2732;52.092;11.556;2022-12-29T09:13:37;10.40;99.90
5419;DHT22;2732;52.092;11.556;2022-12-29T09:18:39;10.50;99.90
5419;DHT22;2732;52.092;11.556;2022-12-29T09:23:40;10.50;99.90
5419;DHT22;2732;52.092;11.556;2022-12-29T09:28:41;10.60;99.90
5419;DHT22;2732;52.092;11.556;2022-12-29T09:33:42;10.80;99.90
5419;DHT22;2732;52.092;11.556;2022-12-29T09:38:43;10.90;99.90
5419;DHT22;2732;52.092;11.556;2022-12-29T09:44:07;11.00;99.90
5419;DHT22;2732;52.092;11.556;2022-12-29T09:49:39;11.00;99.90
5419;DHT22;2732;52.092;11.556;2022-12-29T09:55:02;11.10;99.90
5419;DHT22;2732;52.092;11.556;2022-12-29T10:00:17;11.10;99.90
5419;DHT22;2732;52.092;11.556;2022-12-29T10:05:43;11.10;99.90
5419;DHT22;2732;52.092;11.556;2022-12-29T10:22:15;11.00;99.90
5419;DHT22;2732;52.092;11.556;2022-12-29T10:27:37;10.80;99.90
5419;DHT22;2732;52.092;11.556;2022-12-29T10:32:51;10.80;99.90
5419;DHT22;2732;52.092;11.556;2022-12-29T10:38:02;10.70;99.90
5419;DHT22;2732;52.092;11.556;2022-12-29T10:43:33;10.60;99.90
5419;DHT22;2732;52.092;11.556;2022-12-29T10:48:41;10.60;99.90
5419;DHT22;2732;52.092;11.556;2022-12-29T10:53:50;10.60;99.90
5419;DHT22;2732;52.092;11.556;2022-12-29T10:58:54;10.50;99.90
5419;DHT22;2732;52.092;11.556;2022-12-29T11:09:28;10.40;99.90
5419;DHT22;2732;52.092;11.556;2022-12-29T11:14:31;10.50;99.90
5419;DHT22;2732;52.092;11.556;2022-12-29T11:19:33;10.50;99.90
5419;DHT22;2732;52.092;11.556;2022-12-29T11:24:43;10.50;99.90
5419;DHT22;2732;52.092;11.556;2022-12-29T11:29:46;10.40;99.90
5419;DHT22;2732;52.092;11.556;2022-12-29T11:34:50;10.30;99.90
5419;DHT22;2732;52.092;11.556;2022-12-29T11:40:01;10.20;99.90
5419;DHT22;2732;52.092;11.556;2022-12-29T11:45:09;10.10;99.90
5419;DHT22;2732;52.092;11.556;2022-12-29T11:50:23;10.10;99.90
5419;DHT22;2732;52.092;11.556;2022-12-29T11:55:27;10.00;99.90
5419;DHT22;2732;52.092;11.556;2022-12-29T12:00:31;10.00;99.90
5419;DHT22;2732;52.092;11.556;2022-12-29T12:05:48;10.10;99.90
5419;DHT22;2732;52.092;11.556;2022-12-29T12:10:58;10.30;99.90
5419;DHT22;2732;52.092;11.556;2022-12-29T12:16:08;10.40;99.90
5419;DHT22;2732;52.092;11.556;2022-12-29T12:26:42;10.50;99.90
5419;DHT22;2732;52.092;11.556;2022-12-29T12:31:53;10.50;99.90
5419;DHT22;2732;52.092;11.556;2022-12-29T12:37:18;10.60;99.90
5419;DHT22;2732;52.092;11.556;2022-12-29T12:42:53;10.80;99.90
5419;DHT22;2732;52.092;11.556;2022-12-29T12:48:42;10.80;99.90
5419;DHT22;2732;52.092;11.556;2022-12-29T12:53:58;10.90;99.90
5419;DHT22;2732;52.092;11.556;2022-12-29T12:59:42;10.90;99.90
5419;DHT22;2732;52.092;11.556;2022-12-29T13:10:50;10.90;99.90
5419;DHT22;2732;52.092;11.556;2022-12-29T13:16:11;11.00;99.90
5419;DHT22;2732;52.092;11.556;2022-12-29T13:21:40;11.00;99.90
5419;DHT22;2732;52.092;11.556;2022-12-29T13:32:25;10.90;99.90
5419;DHT22;2732;52.092;11.556;2022-12-29T13:37:50;10.90;99.90
5419;DHT22;2732;52.092;11.556;2022-12-29T13:42:52;10.80;99.90
5419;DHT22;2732;52.092;11.556;2022-12-29T13:48:02;10.70;99.90
5419;DHT22;2732;52.092;11.556;2022-12-29T13:54:11;10.70;99.90
5419;DHT22;2732;52.092;11.556;2022-12-29T13:59:26;10.70;99.90
5419;DHT22;2732;52.092;11.556;2022-12-29T14:04:59;10.70;99.90
5419;DHT22;2732;52.092;11.556;2022-12-29T14:10:04;10.60;99.90
5419;DHT22;2732;52.092;11.556;2022-12-29T14:20:21;10.50;99.90
5419;DHT22;2732;52.092;11.556;2022-12-29T14:25:58;10.50;99.90
5419;DHT22;2732;52.092;11.556;2022-12-29T14:36:42;10.40;99.90
5419;DHT22;2732;52.092;11.556;2022-12-29T14:47:07;10.30;99.90
5419;DHT22;2732;52.092;11.556;2022-12-29T14:52:21;10.30;99.90
5419;DHT22;2732;52.092;11.556;2022-12-29T14:57:32;10.20;99.90
5419;DHT22;2732;52.092;11.556;2022-12-29T15:02:39;10.20;99.90
5419;DHT22;2732;52.092;11.556;2022-12-29T15:07:41;10.10;99.90
5419;DHT22;2732;52.092;11.556;2022-12-29T15:12:46;10.10;99.90
5419;DHT22;2732;52.092;11.556;2022-12-29T15:17:52;10.10;99.90
5419;DHT22;2732;52.092;11.556;2022-12-29T15:22:55;10.10;99.90
5419;DHT22;2732;52.092;11.556;2022-12-29T15:28:06;10.00;99.90
5419;DHT22;2732;52.092;11.556;2022-12-29T15:33:22;9.90;99.90
5419;DHT22;2732;52.092;11.556;2022-12-29T15:38:29;9.90;99.90
5419;DHT22;2732;52.092;11.556;2022-12-29T15:49:24;9.80;99.90
5419;DHT22;2732;52.092;11.556;2022-12-29T15:54:27;9.80;99.90
5419;DHT22;2732;52.092;11.556;2022-12-29T15:59:31;9.80;99.90
5419;DHT22;2732;52.092;11.556;2022-12-29T16:04:33;9.80;99.90
5419;DHT22;2732;52.092;11.556;2022-12-29T16:09:36;9.70;99.90
5419;DHT22;2732;52.092;11.556;2022-12-29T16:14:46;9.70;99.90
5419;DHT22;2732;52.092;11.556;2022-12-29T16:20:02;9.70;99.90
5419;DHT22;2732;52.092;11.556;2022-12-29T16:25:22;9.60;99.90
5419;DHT22;2732;52.092;11.556;2022-12-29T16:30:28;9.60;99.90
5419;DHT22;2732;52.092;11.556;2022-12-29T16:40:55;9.50;99.90
5419;DHT22;2732;52.092;11.556;2022-12-29T16:51:16;9.50;99.90
5419;DHT22;2732;52.092;11.556;2022-12-29T16:56:34;9.50;99.90
5419;DHT22;2732;52.092;11.556;2022-12-29T17:01:37;9.40;99.90
5419;DHT22;2732;52.092;11.556;2022-12-29T17:06:39;9.40;99.90
5419;DHT22;2732;52.092;11.556;2022-12-29T17:11:40;9.30;99.90
5419;DHT22;2732;52.092;11.556;2022-12-29T17:16:56;9.30;99.90
5419;DHT22;2732;52.092;11.556;2022-12-29T17:21:57;9.20;99.90
5419;DHT22;2732;52.092;11.556;2022-12-29T17:26:59;9.10;99.90
5419;DHT22;2732;52.092;11.556;2022-12-29T17:32:01;9.10;99.90
5419;DHT22;2732;52.092;11.556;2022-12-29T17:37:04;9.00;99.90
5419;DHT22;2732;52.092;11.556;2022-12-29T17:42:30;8.90;99.90
5419;DHT22;2732;52.092;11.556;2022-12-29T17:47:32;8.90;99.90
5419;DHT22;2732;52.092;11.556;2022-12-29T17:52:33;8.90;99.90
5419;DHT22;2732;52.092;11.556;2022-12-29T17:57:35;8.90;99.90
5419;DHT22;2732;52.092;11.556;2022-12-29T18:02:36;8.90;99.90
5419;DHT22;2732;52.092;11.556;2022-12-29T18:07:36;8.90;99.90
5419;DHT22;2732;52.092;11.556;2022-12-29T18:12:39;8.90;99.90
5419;DHT22;2732;52.092;11.556;2022-12-29T18:17:41;8.90;99.90
5419;DHT22;2732;52.092;11.556;2022-12-29T18:22:42;8.90;99.90
5419;DHT22;2732;52.092;11.556;2022-12-29T18:27:43;8.90;99.90
5419;DHT22;2732;52.092;11.556;2022-12-29T18:32:43;8.90;99.90
5419;DHT22;2732;52.092;11.556;2022-12-29T18:37:44;8.90;99.90
5419;DHT22;2732;52.092;11.556;2022-12-29T18:42:45;8.90;99.90
5419;DHT22;2732;52.092;11.556;2022-12-29T18:47:46;8.80;99.90
5419;DHT22;2732;52.092;11.556;2022-12-29T18:52:46;8.80;99.90
5419;DHT22;2732;52.092;11.556;2022-12-29T18:57:48;8.80;99.90
5419;DHT22;2732;52.092;11.556;2022-12-29T19:02:50;8.80;99.90
5419;DHT22;2732;52.092;11.556;2022-12-29T19:07:52;8.80;99.90
5419;DHT22;2732;52.092;11.556;2022-12-29T19:12:53;8.80;99.90
5419;DHT22;2732;52.092;11.556;2022-12-29T19:17:56;8.80;99.90
5419;DHT22;2732;52.092;11.556;2022-12-29T19:22:59;8.70;99.90
5419;DHT22;2732;52.092;11.556;2022-12-29T19:28:01;8.70;99.90
5419;DHT22;2732;52.092;11.556;2022-12-29T19:33:02;8.70;99.90
5419;DHT22;2732;52.092;11.556;2022-12-29T19:38:04;8.70;99.90
5419;DHT22;2732;52.092;11.556;2022-12-29T19:43:04;8.60;99.90
5419;DHT22;2732;52.092;11.556;2022-12-29T19:48:07;8.60;99.90
5419;DHT22;2732;52.092;11.556;2022-12-29T19:53:09;8.60;99.90
5419;DHT22;2732;52.092;11.556;2022-12-29T19:58:10;8.50;99.90
5419;DHT22;2732;52.092;11.556;2022-12-29T20:03:11;8.40;99.90
5419;DHT22;2732;52.092;11.556;2022-12-29T20:08:12;8.40;99.90
5419;DHT22;2732;52.092;11.556;2022-12-29T20:13:13;8.30;99.90
5419;DHT22;2732;52.092;11.556;2022-12-29T20:18:13;8.30;99.90
5419;DHT22;2732;52.092;11.556;2022-12-29T20:23:14;8.20;99.90
5419;DHT22;2732;52.092;11.556;2022-12-29T20:28:14;8.30;99.90
5419;DHT22;2732;52.092;11.556;2022-12-29T20:33:16;8.20;99.90
5419;DHT22;2732;52.092;11.556;2022-12-29T20:38:16;8.20;99.90
5419;DHT22;2732;52.092;11.556;2022-12-29T20:43:17;8.20;99.90
5419;DHT22;2732;52.092;11.556;2022-12-29T20:48:18;8.20;99.90
5419;DHT22;2732;52.092;11.556;2022-12-29T20:53:19;8.10;99.90
5419;DHT22;2732;52.092;11.556;2022-12-29T20:58:19;8.10;99.90
5419;DHT22;2732;52.092;11.556;2022-12-29T21:03:21;8.10;99.90
5419;DHT22;2732;52.092;11.556;2022-12-29T21:08:22;8.00;99.90
5419;DHT22;2732;52.092;11.556;2022-12-29T21:13:24;8.00;99.90
5419;DHT22;2732;52.092;11.556;2022-12-29T21:18:26;7.90;99.90
5419;DHT22;2732;52.092;11.556;2022-12-29T21:23:27;7.90;99.90
5419;DHT22;2732;52.092;11.556;2022-12-29T21:28:28;7.80;99.90
5419;DHT22;2732;52.092;11.556;2022-12-29T21:33:29;7.80;99.90
5419;DHT22;2732;52.092;11.556;2022-12-29T21:38:29;7.70;99.90
5419;DHT22;2732;52.092;11.556;2022-12-29T21:43:31;7.70;99.90
5419;DHT22;2732;52.092;11.556;2022-12-29T21:48:32;7.60;99.90
5419;DHT22;2732;52.092;11.556;2022-12-29T21:53:35;7.60;99.90
5419;DHT22;2732;52.092;11.556;2022-12-29T21:58:39;7.50;99.90
5419;DHT22;2732;52.092;11.556;2022-12-29T22:04:02;7.50;99.90
5419;DHT22;2732;52.092;11.556;2022-12-29T22:09:21;7.50;99.90
5419;DHT22;2732;52.092;11.556;2022-12-29T22:14:40;7.50;99.90
5419;DHT22;2732;52.092;11.556;2022-12-29T22:19:41;7.40;99.90
5419;DHT22;2732;52.092;11.556;2022-12-29T22:24:42;7.40;99.90
5419;DHT22;2732;52.092;11.556;2022-12-29T22:29:42;7.40;99.90
5419;DHT22;2732;52.092;11.556;2022-12-29T22:34:43;7.40;99.90
5419;DHT22;2732;52.092;11.556;2022-12-29T22:39:43;7.40;99.90
5419;DHT22;2732;52.092;11.556;2022-12-29T22:44:44;7.40;99.90
5419;DHT22;2732;52.092;11.556;2022-12-29T22:49:45;7.40;99.90
5419;DHT22;2732;52.092;11.556;2022-12-29T22:54:46;7.40;99.90
5419;DHT22;2732;52.092;11.556;2022-12-29T22:59:46;7.40;99.90
5419;DHT22;2732;52.092;11.556;2022-12-29T23:04:47;7.40;99.90
5419;DHT22;2732;52.092;11.556;2022-12-29T23:09:47;7.40;99.90
5419;DHT22;2732;52.092;11.556;2022-12-29T23:14:48;7.30;99.90
5419;DHT22;2732;52.092;11.556;2022-12-29T23:19:49;7.20;99.90
5419;DHT22;2732;52.092;11.556;2022-12-29T23:24:49;7.20;99.90
5419;DHT22;2732;52.092;11.556;2022-12-29T23:29:50;7.10;99.90
5419;DHT22;2732;52.092;11.556;2022-12-29T23:34:51;7.10;99.90
5419;DHT22;2732;52.092;11.556;2022-12-29T23:39:51;7.00;99.90
5419;DHT22;2732;52.092;11.556;2022-12-29T23:44:52;7.00;99.90
5419;DHT22;2732;52.092;11.556;2022-12-29T23:49:52;6.90;99.90
5419;DHT22;2732;52.092;11.556;2022-12-29T23:54:53;6.90;99.90
5419;DHT22;2732;52.092;11.556;2022-12-29T23:59:53;6.80;99.90
